Terminal Aerodrome Forecast
Issued by NWS

Home | Current Version | Previous Version | Text Only | Print | Product List | Glossary Off
Versions: 1 2 3 4 5 6 7 8 9 10 11 12 13 14 15

000
FTUS43 KMPX 020520
TAFRWF
TAF
KRWF 020520Z 0206/0306 22008KT P6SM SKC
     FM021400 28012KT P6SM SKC
     FM021600 32014G22KT P6SM SKC
     FM030100 31005KT P6SM SKC=

USA.gov is the U.S. government's official web portal to all federal, state and local government web resources and services.